createdAt,value
2018-08-23T00:00:45.245Z,11.12
2018-08-23T00:06:14.446Z,11.03
2018-08-23T00:11:47.488Z,11.70
2018-08-23T00:17:16.767Z,11.57
2018-08-23T00:22:46.097Z,11.65
2018-08-23T00:28:18.836Z,11.53
2018-08-23T00:33:49.184Z,10.25
2018-08-23T00:39:18.444Z,11.20
2018-08-23T00:44:58.522Z,10.48
2018-08-23T00:51:06.700Z,10.60
2018-08-23T00:56:35.945Z,10.48
2018-08-23T01:02:07.795Z,10.58
2018-08-23T01:07:37.103Z,11.03
2018-08-23T01:13:06.368Z,10.98
2018-08-23T01:18:35.721Z,10.88
2018-08-23T01:24:06.092Z,11.53
2018-08-23T01:29:35.432Z,11.95
2018-08-23T01:35:04.731Z,10.63
2018-08-23T01:40:35.049Z,10.95
2018-08-23T01:46:04.293Z,11.30
2018-08-23T01:51:33.697Z,11.25
2018-08-23T01:57:02.901Z,10.50
2018-08-23T02:02:32.108Z,10.65
2018-08-23T02:08:01.360Z,11.08
2018-08-23T02:13:31.510Z,11.25
2018-08-23T02:19:00.792Z,11.20
2018-08-23T02:24:33.832Z,10.25
2018-08-23T02:30:03.196Z,11.85
2018-08-23T02:35:32.457Z,11.30
2018-08-23T02:41:01.648Z,10.10
2018-08-23T02:46:33.090Z,9.80
2018-08-23T02:52:04.236Z,9.08
2018-08-23T02:57:33.468Z,9.18
2018-08-23T03:03:02.703Z,8.63
2018-08-23T03:08:43.918Z,8.55
2018-08-23T03:14:13.243Z,7.67
2018-08-23T03:20:02.620Z,8.15
2018-08-23T03:25:31.862Z,8.40
2018-08-23T03:31:02.708Z,7.75
2018-08-23T03:36:31.902Z,7.62
2018-08-23T03:42:01.163Z,8.38
2018-08-23T03:47:39.535Z,7.85
2018-08-23T03:53:08.838Z,7.95
2018-08-23T03:58:38.187Z,7.75
2018-08-23T04:04:08.174Z,8.35
2018-08-23T04:09:37.632Z,8.33
2018-08-23T04:15:28.153Z,8.68
2018-08-23T04:20:58.507Z,7.58
2018-08-23T04:26:28.851Z,7.70
2018-08-23T04:31:58.480Z,7.25
2018-08-23T04:37:29.972Z,7.67
2018-08-23T04:42:59.214Z,7.60
2018-08-23T04:48:30.685Z,7.80
2018-08-23T04:53:59.917Z,7.33
2018-08-23T04:59:29.260Z,7.83
2018-08-23T05:04:58.563Z,8.10
2018-08-23T05:10:27.827Z,7.40
2018-08-23T05:15:57.083Z,8.18
2018-08-23T05:21:26.283Z,6.95
2018-08-23T05:26:55.494Z,7.87
2018-08-23T05:32:24.725Z,7.70
2018-08-23T05:37:53.944Z,7.60
2018-08-23T05:43:23.747Z,8.30
2018-08-23T05:48:53.430Z,7.55
2018-08-23T05:54:22.760Z,7.85
2018-08-23T05:59:52.001Z,7.80
2018-08-23T06:05:21.263Z,7.92
2018-08-23T06:10:57.427Z,7.30
2018-08-23T06:16:26.753Z,7.67
2018-08-23T06:21:56.039Z,7.22
2018-08-23T06:27:26.365Z,7.37
2018-08-23T06:33:00.826Z,6.97
2018-08-23T06:38:30.688Z,6.67
2018-08-23T06:43:59.867Z,6.35
2018-08-23T06:49:33.661Z,6.00
2018-08-23T06:55:03.024Z,6.10
2018-08-23T07:00:32.809Z,5.03
2018-08-23T07:06:02.044Z,5.42
2018-08-23T07:11:31.248Z,5.37
2018-08-23T07:17:15.131Z,5.20
2018-08-23T07:22:44.609Z,4.60
2018-08-23T07:28:14.081Z,4.80
2018-08-23T07:33:45.378Z,5.25
2018-08-23T07:39:16.055Z,5.58
2018-08-23T07:44:48.407Z,4.90
2018-08-23T07:50:17.657Z,5.17
2018-08-23T07:55:46.896Z,4.87
2018-08-23T08:01:16.164Z,4.83
2018-08-23T08:06:45.487Z,5.08
2018-08-23T08:12:20.174Z,4.60
2018-08-23T08:17:49.435Z,5.60
2018-08-23T08:23:18.649Z,5.20
2018-08-23T08:28:47.933Z,4.87
2018-08-23T08:34:17.319Z,4.87
2018-08-23T08:39:46.536Z,5.25
2018-08-23T08:45:15.907Z,5.20
2018-08-23T08:50:50.903Z,5.37
2018-08-23T08:56:32.992Z,5.08
2018-08-23T09:02:02.216Z,5.58
2018-08-23T09:07:32.552Z,5.10
2018-08-23T09:13:01.731Z,5.08
2018-08-23T09:18:30.988Z,5.15
2018-08-23T09:24:24.449Z,5.15
2018-08-23T09:29:53.664Z,5.75
2018-08-23T09:35:27.463Z,5.00
2018-08-23T09:40:56.659Z,4.45
2018-08-23T09:46:25.892Z,4.87
2018-08-23T09:51:55.047Z,6.00
2018-08-23T09:57:24.831Z,5.42
2018-08-23T10:02:59.269Z,5.17
2018-08-23T10:08:33.753Z,5.45
2018-08-23T10:14:08.063Z,4.83
2018-08-23T10:19:42.517Z,5.80
2018-08-23T10:25:45.961Z,5.87
2018-08-23T10:31:15.206Z,5.35
2018-08-23T10:36:44.488Z,5.55
2018-08-23T10:42:16.764Z,5.83
2018-08-23T10:47:51.236Z,5.65
2018-08-23T10:53:20.471Z,5.50
2018-08-23T10:58:49.679Z,5.28
2018-08-23T11:04:19.059Z,5.80
2018-08-23T11:09:53.778Z,5.10
2018-08-23T11:15:22.875Z,5.58
2018-08-23T11:20:52.156Z,5.65
2018-08-23T11:26:23.008Z,5.10
2018-08-23T11:31:52.272Z,5.72
2018-08-23T11:37:21.430Z,5.47
2018-08-23T11:42:50.755Z,5.80
2018-08-23T11:48:19.927Z,5.53
2018-08-23T11:53:49.190Z,5.80
2018-08-23T11:59:18.466Z,5.72
2018-08-23T12:04:47.669Z,5.92
2018-08-23T12:10:18.908Z,5.62
2018-08-23T12:15:48.096Z,6.12
2018-08-23T12:21:17.297Z,5.80
2018-08-23T12:26:46.507Z,5.95
2018-08-23T12:32:15.844Z,5.50
2018-08-23T12:37:55.191Z,6.00
2018-08-23T12:43:29.651Z,6.22
2018-08-23T12:48:59.176Z,6.12
2018-08-23T12:54:28.409Z,6.40
2018-08-23T12:59:57.627Z,6.12
2018-08-23T13:05:26.897Z,6.37
2018-08-23T13:10:56.233Z,5.53
2018-08-23T13:16:25.429Z,6.67
2018-08-23T13:21:59.892Z,6.20
2018-08-23T13:27:31.546Z,6.47
2018-08-23T13:33:00.717Z,6.60
2018-08-23T13:38:29.930Z,6.47
2018-08-23T13:43:59.221Z,7.58
2018-08-23T13:49:28.468Z,7.12
2018-08-23T13:54:57.660Z,7.70
2018-08-23T14:00:32.180Z,7.35
2018-08-23T14:06:01.443Z,6.45
2018-08-23T14:11:30.600Z,7.62
2018-08-23T14:17:00.202Z,7.53
2018-08-23T14:22:29.396Z,7.55
2018-08-23T14:27:58.622Z,7.53
2018-08-23T14:33:32.584Z,7.33
2018-08-23T14:39:01.780Z,7.40
2018-08-23T14:44:31.031Z,7.17
2018-08-23T14:50:00.475Z,7.05
2018-08-23T14:56:35.147Z,7.22
2018-08-23T15:02:04.684Z,8.55
2018-08-23T15:07:33.882Z,6.05
2018-08-23T15:13:03.039Z,5.78
2018-08-23T15:18:32.265Z,5.20
2018-08-23T15:24:01.575Z,6.12
2018-08-23T15:29:30.775Z,7.15
2018-08-23T15:34:59.992Z,6.92
2018-08-23T15:40:29.210Z,7.28
2018-08-23T15:45:58.390Z,6.87
2018-08-23T15:51:27.601Z,6.30
2018-08-23T15:56:56.767Z,7.00
2018-08-23T16:02:26.479Z,6.22
2018-08-23T16:07:55.902Z,7.58
2018-08-23T16:13:25.212Z,6.75
2018-08-23T16:19:00.536Z,6.87
2018-08-23T16:24:29.767Z,6.30
2018-08-23T16:29:58.975Z,6.55
2018-08-23T16:35:28.176Z,6.60
2018-08-23T16:40:57.411Z,5.12
2018-08-23T16:46:26.600Z,5.70
2018-08-23T16:51:55.781Z,5.47
2018-08-23T16:57:25.035Z,6.30
2018-08-23T17:02:55.437Z,6.10
2018-08-23T17:08:25.092Z,6.00
2018-08-23T17:13:54.340Z,5.20
2018-08-23T17:19:23.626Z,5.42
2018-08-23T17:24:52.848Z,5.50
2018-08-23T17:30:22.071Z,5.75
2018-08-23T17:35:51.336Z,5.67
2018-08-23T17:41:20.569Z,6.15
2018-08-23T17:46:51.120Z,5.55
2018-08-23T17:52:20.363Z,4.90
2018-08-23T17:57:49.623Z,5.47
2018-08-23T18:03:18.955Z,4.20
2018-08-23T18:08:52.766Z,4.40
2018-08-23T18:14:22.067Z,3.62
2018-08-23T18:19:51.554Z,3.98
2018-08-23T18:25:20.856Z,3.77
2018-08-23T18:30:50.033Z,4.37
2018-08-23T18:36:19.764Z,6.05
2018-08-23T18:41:49.410Z,6.33
2018-08-23T18:47:20.367Z,5.90
2018-08-23T18:52:49.716Z,5.75
2018-08-23T18:58:19.040Z,5.37
2018-08-23T19:03:48.403Z,4.47
2018-08-23T19:09:17.757Z,5.33
2018-08-23T19:14:47.041Z,4.97
2018-08-23T19:20:16.355Z,4.17
2018-08-23T19:25:47.654Z,5.20
2018-08-23T19:31:17.001Z,4.40
2018-08-23T19:36:46.337Z,4.30
2018-08-23T19:42:15.722Z,3.92
2018-08-23T19:47:57.045Z,4.58
2018-08-23T19:53:26.316Z,5.08
2018-08-23T19:58:55.586Z,4.83
2018-08-23T20:04:24.953Z,4.47
2018-08-23T20:09:54.233Z,5.28
2018-08-23T20:15:25.393Z,4.78
2018-08-23T20:20:54.675Z,6.25
2018-08-23T20:26:24.138Z,5.33
2018-08-23T20:31:56.587Z,5.12
2018-08-23T20:37:25.779Z,6.12
2018-08-23T20:42:55.000Z,14.07
2018-08-23T20:48:24.391Z,4.30
2018-08-23T20:53:53.651Z,5.08
2018-08-23T20:59:22.955Z,4.97
2018-08-23T21:04:52.616Z,4.60
2018-08-23T21:10:22.064Z,4.03
2018-08-23T21:15:51.560Z,4.55
2018-08-23T21:21:20.972Z,4.50
2018-08-23T21:26:50.224Z,4.30
2018-08-23T21:32:20.480Z,4.10
2018-08-23T21:37:49.933Z,5.90
2018-08-23T21:43:19.198Z,5.05
2018-08-23T21:48:48.424Z,4.90
2018-08-23T21:54:17.710Z,3.92
2018-08-23T21:59:47.111Z,4.08
2018-08-23T22:05:17.471Z,4.50
2018-08-23T22:10:46.744Z,5.22
2018-08-23T22:16:16.064Z,4.42
2018-08-23T22:21:45.325Z,4.78
2018-08-23T22:27:14.827Z,5.33
2018-08-23T22:32:44.348Z,6.17
2018-08-23T22:38:13.753Z,8.85
2018-08-23T22:43:43.091Z,16.62
2018-08-23T22:49:12.481Z,10.00
2018-08-23T22:54:41.832Z,8.73
2018-08-23T23:00:11.072Z,5.30
2018-08-23T23:05:40.428Z,4.45
2018-08-23T23:11:10.599Z,4.87
2018-08-23T23:16:39.904Z,3.85
2018-08-23T23:22:09.219Z,4.25
2018-08-23T23:27:38.442Z,4.28
2018-08-23T23:33:08.080Z,3.98
2018-08-23T23:38:37.364Z,4.45
2018-08-23T23:44:06.630Z,4.60
2018-08-23T23:49:35.823Z,3.77
2018-08-23T23:55:05.149Z,3.87
